sensor_id;sensor_type;location;lat;lon;timestamp;pressure;altitude;pressure_sealevel;temperature;humidity
27144;BME280;14672;50.250;8.312;2023-05-18T00:02:14;99719.84;;;12.21;49.65
27144;BME280;14672;50.250;8.312;2023-05-18T00:04:43;99719.78;;;12.08;50.11
27144;BME280;14672;50.250;8.312;2023-05-18T00:07:09;99716.03;;;12.11;50.40
27144;BME280;14672;50.250;8.312;2023-05-18T00:09:36;99712.06;;;11.93;50.61
27144;BME280;14672;50.250;8.312;2023-05-18T00:12:04;99721.44;;;11.77;51.07
27144;BME280;14672;50.250;8.312;2023-05-18T00:14:30;99711.09;;;11.83;51.29
27144;BME280;14672;50.250;8.312;2023-05-18T00:16:56;99706.41;;;11.76;51.23
27144;BME280;14672;50.250;8.312;2023-05-18T00:19:23;99715.19;;;11.66;51.79
27144;BME280;14672;50.250;8.312;2023-05-18T00:21:50;99725.22;;;11.70;51.42
27144;BME280;14672;50.250;8.312;2023-05-18T00:24:23;99712.44;;;11.62;51.37
27144;BME280;14672;50.250;8.312;2023-05-18T00:26:49;99718.91;;;11.63;51.37
27144;BME280;14672;50.250;8.312;2023-05-18T00:29:15;99720.19;;;11.46;51.82
27144;BME280;14672;50.250;8.312;2023-05-18T00:31:41;99713.88;;;11.54;51.56
27144;BME280;14672;50.250;8.312;2023-05-18T00:34:09;99717.31;;;11.46;51.70
27144;BME280;14672;50.250;8.312;2023-05-18T00:36:36;99716.25;;;11.40;52.00
27144;BME280;14672;50.250;8.312;2023-05-18T00:39:04;99713.56;;;11.32;52.24
27144;BME280;14672;50.250;8.312;2023-05-18T00:41:30;99716.59;;;11.25;52.21
27144;BME280;14672;50.250;8.312;2023-05-18T00:43:57;99718.34;;;11.19;52.78
27144;BME280;14672;50.250;8.312;2023-05-18T00:46:25;99717.72;;;11.12;52.86
27144;BME280;14672;50.250;8.312;2023-05-18T00:48:52;99722.09;;;11.16;52.91
27144;BME280;14672;50.250;8.312;2023-05-18T00:51:22;99721.81;;;11.11;53.01
27144;BME280;14672;50.250;8.312;2023-05-18T00:53:54;99719.59;;;11.02;52.99
27144;BME280;14672;50.250;8.312;2023-05-18T00:56:21;99717.53;;;11.03;52.72
27144;BME280;14672;50.250;8.312;2023-05-18T00:58:53;99715.50;;;11.03;53.03
27144;BME280;14672;50.250;8.312;2023-05-18T01:01:30;99714.00;;;10.79;53.89
27144;BME280;14672;50.250;8.312;2023-05-18T01:03:59;99713.19;;;10.98;52.80
27144;BME280;14672;50.250;8.312;2023-05-18T01:06:27;99721.34;;;10.96;52.85
27144;BME280;14672;50.250;8.312;2023-05-18T01:09:01;99711.03;;;10.86;53.22
27144;BME280;14672;50.250;8.312;2023-05-18T01:16:56;99713.16;;;10.82;53.36
27144;BME280;14672;50.250;8.312;2023-05-18T01:28:14;99707.94;;;10.61;53.83
27144;BME280;14672;50.250;8.312;2023-05-18T01:30:42;99711.16;;;10.63;53.89
27144;BME280;14672;50.250;8.312;2023-05-18T01:33:11;99712.59;;;10.51;54.15
27144;BME280;14672;50.250;8.312;2023-05-18T01:35:38;99708.16;;;10.50;54.28
27144;BME280;14672;50.250;8.312;2023-05-18T01:38:18;99714.19;;;10.52;54.13
27144;BME280;14672;50.250;8.312;2023-05-18T01:43:37;99714.44;;;10.42;53.96
27144;BME280;14672;50.250;8.312;2023-05-18T01:46:20;99720.38;;;10.47;54.23
27144;BME280;14672;50.250;8.312;2023-05-18T01:48:54;99718.06;;;10.42;54.16
27144;BME280;14672;50.250;8.312;2023-05-18T01:51:28;99722.28;;;10.34;54.27
27144;BME280;14672;50.250;8.312;2023-05-18T01:54:04;99718.56;;;10.37;54.55
27144;BME280;14672;50.250;8.312;2023-05-18T01:56:33;99716.53;;;10.18;55.16
27144;BME280;14672;50.250;8.312;2023-05-18T01:58:59;99715.53;;;10.05;55.45
27144;BME280;14672;50.250;8.312;2023-05-18T02:01:26;99716.53;;;10.18;54.88
27144;BME280;14672;50.250;8.312;2023-05-18T02:03:52;99714.31;;;10.06;55.50
27144;BME280;14672;50.250;8.312;2023-05-18T02:06:17;99718.31;;;10.08;55.02
27144;BME280;14672;50.250;8.312;2023-05-18T02:08:43;99719.50;;;9.87;55.40
27144;BME280;14672;50.250;8.312;2023-05-18T02:11:09;99715.59;;;10.01;55.05
27144;BME280;14672;50.250;8.312;2023-05-18T02:13:35;99721.84;;;9.93;55.25
27144;BME280;14672;50.250;8.312;2023-05-18T02:16:02;99713.47;;;9.85;55.77
27144;BME280;14672;50.250;8.312;2023-05-18T02:18:29;99724.44;;;9.83;55.64
27144;BME280;14672;50.250;8.312;2023-05-18T02:20:58;99716.88;;;9.77;55.87
27144;BME280;14672;50.250;8.312;2023-05-18T02:23:25;99715.16;;;9.83;55.58
27144;BME280;14672;50.250;8.312;2023-05-18T02:25:51;99714.09;;;9.73;56.04
27144;BME280;14672;50.250;8.312;2023-05-18T02:28:21;99720.56;;;9.74;55.56
27144;BME280;14672;50.250;8.312;2023-05-18T02:30:48;99718.91;;;9.76;55.65
27144;BME280;14672;50.250;8.312;2023-05-18T02:33:13;99715.03;;;9.67;55.91
27144;BME280;14672;50.250;8.312;2023-05-18T02:35:42;99717.19;;;9.59;56.07
27144;BME280;14672;50.250;8.312;2023-05-18T02:38:08;99703.13;;;9.52;56.46
27144;BME280;14672;50.250;8.312;2023-05-18T02:40:33;99714.41;;;9.56;56.14
27144;BME280;14672;50.250;8.312;2023-05-18T02:42:59;99710.94;;;9.44;56.46
27144;BME280;14672;50.250;8.312;2023-05-18T02:45:28;99710.34;;;9.57;55.96
27144;BME280;14672;50.250;8.312;2023-05-18T02:47:53;99721.06;;;9.46;56.56
27144;BME280;14672;50.250;8.312;2023-05-18T02:50:19;99718.47;;;9.31;56.39
27144;BME280;14672;50.250;8.312;2023-05-18T02:52:45;99721.94;;;9.42;56.47
27144;BME280;14672;50.250;8.312;2023-05-18T02:55:13;99719.69;;;9.30;56.68
27144;BME280;14672;50.250;8.312;2023-05-18T02:57:39;99717.22;;;9.32;56.23
27144;BME280;14672;50.250;8.312;2023-05-18T03:00:13;99716.59;;;9.21;56.34
27144;BME280;14672;50.250;8.312;2023-05-18T03:02:41;99719.91;;;9.16;57.24
27144;BME280;14672;50.250;8.312;2023-05-18T03:05:08;99728.47;;;9.13;56.94
27144;BME280;14672;50.250;8.312;2023-05-18T03:07:34;99724.47;;;9.10;56.64
27144;BME280;14672;50.250;8.312;2023-05-18T03:10:02;99722.81;;;9.13;56.66
27144;BME280;14672;50.250;8.312;2023-05-18T03:12:28;99724.00;;;9.15;56.46
27144;BME280;14672;50.250;8.312;2023-05-18T03:14:54;99721.69;;;9.07;56.38
27144;BME280;14672;50.250;8.312;2023-05-18T03:17:20;99722.59;;;9.00;56.97
27144;BME280;14672;50.250;8.312;2023-05-18T03:19:45;99731.72;;;8.84;57.46
27144;BME280;14672;50.250;8.312;2023-05-18T03:22:11;99731.59;;;8.95;57.03
27144;BME280;14672;50.250;8.312;2023-05-18T03:24:37;99730.41;;;8.92;57.07
27144;BME280;14672;50.250;8.312;2023-05-18T03:27:05;99734.03;;;8.93;57.08
27144;BME280;14672;50.250;8.312;2023-05-18T03:29:32;99732.91;;;8.87;57.28
27144;BME280;14672;50.250;8.312;2023-05-18T03:31:59;99735.84;;;8.80;57.34
27144;BME280;14672;50.250;8.312;2023-05-18T03:34:24;99735.41;;;8.81;57.05
27144;BME280;14672;50.250;8.312;2023-05-18T03:36:50;99731.78;;;8.81;57.26
27144;BME280;14672;50.250;8.312;2023-05-18T03:39:17;99731.03;;;8.77;57.40
27144;BME280;14672;50.250;8.312;2023-05-18T03:41:42;99728.19;;;8.77;57.52
27144;BME280;14672;50.250;8.312;2023-05-18T03:44:08;99736.22;;;8.82;57.41
27144;BME280;14672;50.250;8.312;2023-05-18T03:46:34;99735.94;;;8.73;57.57
27144;BME280;14672;50.250;8.312;2023-05-18T03:48:59;99725.31;;;8.80;57.55
27144;BME280;14672;50.250;8.312;2023-05-18T03:51:32;99732.34;;;8.69;57.56
27144;BME280;14672;50.250;8.312;2023-05-18T03:53:58;99735.28;;;8.62;57.60
27144;BME280;14672;50.250;8.312;2023-05-18T03:56:23;99734.81;;;8.67;57.91
27144;BME280;14672;50.250;8.312;2023-05-18T03:58:50;99733.19;;;8.66;57.93
27144;BME280;14672;50.250;8.312;2023-05-18T04:01:17;99734.38;;;8.68;57.41
27144;BME280;14672;50.250;8.312;2023-05-18T04:03:44;99741.03;;;8.55;57.89
27144;BME280;14672;50.250;8.312;2023-05-18T04:06:10;99740.09;;;8.65;57.90
27144;BME280;14672;50.250;8.312;2023-05-18T04:08:36;99737.00;;;8.52;58.40
27144;BME280;14672;50.250;8.312;2023-05-18T04:11:02;99744.16;;;8.64;58.05
27144;BME280;14672;50.250;8.312;2023-05-18T04:13:27;99734.97;;;8.53;58.14
27144;BME280;14672;50.250;8.312;2023-05-18T04:15:53;99741.84;;;8.55;58.15
27144;BME280;14672;50.250;8.312;2023-05-18T04:18:22;99743.53;;;8.49;58.89
27144;BME280;14672;50.250;8.312;2023-05-18T04:20:47;99739.53;;;8.46;58.88
27144;BME280;14672;50.250;8.312;2023-05-18T04:23:14;99739.84;;;8.52;58.55
27144;BME280;14672;50.250;8.312;2023-05-18T04:25:40;99738.50;;;8.64;58.70
27144;BME280;14672;50.250;8.312;2023-05-18T04:28:06;99747.06;;;8.57;58.82
27144;BME280;14672;50.250;8.312;2023-05-18T04:30:33;99745.09;;;8.54;59.43
27144;BME280;14672;50.250;8.312;2023-05-18T04:32:59;99746.50;;;8.69;59.08
27144;BME280;14672;50.250;8.312;2023-05-18T04:35:26;99753.03;;;8.66;58.66
27144;BME280;14672;50.250;8.312;2023-05-18T04:37:52;99746.47;;;8.72;59.01
27144;BME280;14672;50.250;8.312;2023-05-18T04:40:19;99760.22;;;8.74;59.31
27144;BME280;14672;50.250;8.312;2023-05-18T04:42:44;99761.44;;;8.73;59.28
27144;BME280;14672;50.250;8.312;2023-05-18T04:45:16;99762.69;;;8.72;60.14
27144;BME280;14672;50.250;8.312;2023-05-18T04:47:48;99756.63;;;8.70;60.00
27144;BME280;14672;50.250;8.312;2023-05-18T04:50:18;99752.81;;;8.80;59.82
27144;BME280;14672;50.250;8.312;2023-05-18T04:52:47;99755.25;;;8.81;60.41
27144;BME280;14672;50.250;8.312;2023-05-18T04:55:21;99760.69;;;8.99;60.39
27144;BME280;14672;50.250;8.312;2023-05-18T04:57:51;99754.34;;;8.88;60.31
27144;BME280;14672;50.250;8.312;2023-05-18T05:00:27;99758.69;;;8.96;60.95
27144;BME280;14672;50.250;8.312;2023-05-18T05:02:58;99757.75;;;9.06;60.50
27144;BME280;14672;50.250;8.312;2023-05-18T05:05:24;99757.28;;;9.11;60.56
27144;BME280;14672;50.250;8.312;2023-05-18T05:07:52;99753.94;;;9.16;59.69
27144;BME280;14672;50.250;8.312;2023-05-18T05:10:19;99753.78;;;9.27;59.87
27144;BME280;14672;50.250;8.312;2023-05-18T05:12:49;99754.59;;;9.27;59.97
27144;BME280;14672;50.250;8.312;2023-05-18T05:15:34;99750.28;;;9.42;59.82
27144;BME280;14672;50.250;8.312;2023-05-18T05:18:01;99750.28;;;9.42;60.10
27144;BME280;14672;50.250;8.312;2023-05-18T05:20:26;99754.63;;;9.51;59.84
27144;BME280;14672;50.250;8.312;2023-05-18T05:22:52;99765.38;;;9.63;59.69
27144;BME280;14672;50.250;8.312;2023-05-18T05:25:19;99756.91;;;9.59;59.84
27144;BME280;14672;50.250;8.312;2023-05-18T05:27:45;99757.00;;;9.75;60.19
27144;BME280;14672;50.250;8.312;2023-05-18T05:30:11;99747.94;;;9.84;59.80
27144;BME280;14672;50.250;8.312;2023-05-18T05:32:40;99760.78;;;9.92;60.08
27144;BME280;14672;50.250;8.312;2023-05-18T05:35:06;99749.66;;;10.01;59.37
27144;BME280;14672;50.250;8.312;2023-05-18T05:37:32;99762.00;;;10.14;59.37
27144;BME280;14672;50.250;8.312;2023-05-18T05:39:57;99767.94;;;10.23;60.03
27144;BME280;14672;50.250;8.312;2023-05-18T05:42:23;99766.94;;;10.33;60.57
27144;BME280;14672;50.250;8.312;2023-05-18T05:44:52;99757.38;;;10.44;60.30
27144;BME280;14672;50.250;8.312;2023-05-18T05:47:18;99767.03;;;10.50;60.39
27144;BME280;14672;50.250;8.312;2023-05-18T05:49:44;99767.38;;;10.71;58.75
27144;BME280;14672;50.250;8.312;2023-05-18T05:52:09;99763.06;;;10.83;58.64
27144;BME280;14672;50.250;8.312;2023-05-18T05:54:35;99763.44;;;10.85;59.47
27144;BME280;14672;50.250;8.312;2023-05-18T05:57:01;99756.28;;;10.97;59.77
27144;BME280;14672;50.250;8.312;2023-05-18T05:59:28;99755.59;;;11.09;59.00
27144;BME280;14672;50.250;8.312;2023-05-18T06:01:54;99761.09;;;11.16;57.88
27144;BME280;14672;50.250;8.312;2023-05-18T06:04:19;99761.31;;;11.25;57.99
27144;BME280;14672;50.250;8.312;2023-05-18T06:06:46;99758.50;;;11.41;56.87
27144;BME280;14672;50.250;8.312;2023-05-18T06:09:12;99763.19;;;11.48;56.25
27144;BME280;14672;50.250;8.312;2023-05-18T06:11:38;99770.13;;;11.63;55.62
27144;BME280;14672;50.250;8.312;2023-05-18T06:14:04;99766.72;;;11.71;54.98
27144;BME280;14672;50.250;8.312;2023-05-18T06:16:30;99766.50;;;11.78;54.29
27144;BME280;14672;50.250;8.312;2023-05-18T06:18:55;99766.47;;;11.82;54.42
27144;BME280;14672;50.250;8.312;2023-05-18T06:21:21;99775.34;;;11.84;54.92
27144;BME280;14672;50.250;8.312;2023-05-18T06:23:47;99763.13;;;12.00;54.51
27144;BME280;14672;50.250;8.312;2023-05-18T06:26:13;99762.41;;;12.12;54.33
27144;BME280;14672;50.250;8.312;2023-05-18T06:28:39;99772.78;;;12.18;53.96
27144;BME280;14672;50.250;8.312;2023-05-18T06:31:05;99767.78;;;12.22;53.56
27144;BME280;14672;50.250;8.312;2023-05-18T06:33:31;99772.03;;;12.18;53.47
27144;BME280;14672;50.250;8.312;2023-05-18T06:35:56;99766.91;;;12.26;53.03
27144;BME280;14672;50.250;8.312;2023-05-18T06:38:22;99765.63;;;12.43;52.81
27144;BME280;14672;50.250;8.312;2023-05-18T06:40:51;99764.53;;;12.53;52.57
27144;BME280;14672;50.250;8.312;2023-05-18T06:43:16;99771.84;;;12.54;52.65
27144;BME280;14672;50.250;8.312;2023-05-18T06:45:42;99762.16;;;12.64;51.89
27144;BME280;14672;50.250;8.312;2023-05-18T06:48:08;99764.09;;;12.67;51.90
27144;BME280;14672;50.250;8.312;2023-05-18T06:50:34;99753.59;;;12.64;52.17
27144;BME280;14672;50.250;8.312;2023-05-18T06:53:00;99755.47;;;12.83;52.53
27144;BME280;14672;50.250;8.312;2023-05-18T06:55:27;99763.50;;;12.88;52.46
27144;BME280;14672;50.250;8.312;2023-05-18T06:57:53;99753.69;;;13.02;51.91
27144;BME280;14672;50.250;8.312;2023-05-18T07:00:21;99764.34;;;13.14;51.94
27144;BME280;14672;50.250;8.312;2023-05-18T07:02:47;99765.69;;;13.09;51.63
27144;BME280;14672;50.250;8.312;2023-05-18T07:05:12;99759.44;;;13.14;50.83
27144;BME280;14672;50.250;8.312;2023-05-18T07:07:39;99759.13;;;13.25;51.09
27144;BME280;14672;50.250;8.312;2023-05-18T07:10:05;99754.88;;;13.42;51.12
27144;BME280;14672;50.250;8.312;2023-05-18T07:12:32;99756.72;;;13.49;51.37
27144;BME280;14672;50.250;8.312;2023-05-18T07:14:57;99752.94;;;13.52;51.16
27144;BME280;14672;50.250;8.312;2023-05-18T07:17:23;99764.38;;;13.52;51.43
27144;BME280;14672;50.250;8.312;2023-05-18T07:19:49;99763.56;;;13.64;50.92
27144;BME280;14672;50.250;8.312;2023-05-18T07:22:15;99765.19;;;13.65;50.89
27144;BME280;14672;50.250;8.312;2023-05-18T07:24:40;99765.50;;;13.67;51.15
27144;BME280;14672;50.250;8.312;2023-05-18T07:27:06;99766.28;;;13.80;50.82
27144;BME280;14672;50.250;8.312;2023-05-18T07:29:33;99761.69;;;13.95;50.68
27144;BME280;14672;50.250;8.312;2023-05-18T07:31:59;99745.59;;;13.89;49.25
27144;BME280;14672;50.250;8.312;2023-05-18T07:34:24;99755.47;;;14.09;50.31
27144;BME280;14672;50.250;8.312;2023-05-18T07:36:52;99752.03;;;14.15;50.75
27144;BME280;14672;50.250;8.312;2023-05-18T07:39:18;99753.25;;;14.26;50.21
27144;BME280;14672;50.250;8.312;2023-05-18T07:41:45;99756.47;;;14.28;49.84
27144;BME280;14672;50.250;8.312;2023-05-18T07:44:13;99744.91;;;14.32;49.76
27144;BME280;14672;50.250;8.312;2023-05-18T07:46:39;99743.16;;;14.34;49.73
27144;BME280;14672;50.250;8.312;2023-05-18T07:49:05;99738.69;;;14.46;49.71
27144;BME280;14672;50.250;8.312;2023-05-18T07:51:31;99737.91;;;14.67;49.41
27144;BME280;14672;50.250;8.312;2023-05-18T07:53:57;99732.03;;;14.71;48.37
27144;BME280;14672;50.250;8.312;2023-05-18T07:56:23;99730.84;;;14.81;48.52
27144;BME280;14672;50.250;8.312;2023-05-18T07:58:50;99739.31;;;14.93;48.63
27144;BME280;14672;50.250;8.312;2023-05-18T08:01:17;99731.25;;;15.01;48.57
27144;BME280;14672;50.250;8.312;2023-05-18T08:03:43;99730.53;;;15.10;47.13
27144;BME280;14672;50.250;8.312;2023-05-18T08:06:09;99728.66;;;15.16;45.50
27144;BME280;14672;50.250;8.312;2023-05-18T08:08:35;99724.56;;;15.26;45.17
27144;BME280;14672;50.250;8.312;2023-05-18T08:11:03;99729.88;;;15.36;45.85
27144;BME280;14672;50.250;8.312;2023-05-18T08:13:29;99718.94;;;15.44;45.10
27144;BME280;14672;50.250;8.312;2023-05-18T08:15:55;99728.69;;;15.56;45.33
27144;BME280;14672;50.250;8.312;2023-05-18T08:18:21;99727.59;;;15.62;45.23
27144;BME280;14672;50.250;8.312;2023-05-18T08:20:48;99723.00;;;15.74;44.89
27144;BME280;14672;50.250;8.312;2023-05-18T08:23:18;99716.50;;;15.82;43.96
27144;BME280;14672;50.250;8.312;2023-05-18T08:25:44;99720.97;;;15.83;43.21
27144;BME280;14672;50.250;8.312;2023-05-18T08:28:10;99722.91;;;15.95;43.96
27144;BME280;14672;50.250;8.312;2023-05-18T08:30:36;99724.84;;;16.08;43.22
27144;BME280;14672;50.250;8.312;2023-05-18T08:33:02;99714.31;;;16.14;42.71
27144;BME280;14672;50.250;8.312;2023-05-18T08:35:28;99725.00;;;16.22;42.51
27144;BME280;14672;50.250;8.312;2023-05-18T08:37:54;99718.31;;;16.25;42.36
27144;BME280;14672;50.250;8.312;2023-05-18T08:40:19;99713.84;;;16.33;42.23
27144;BME280;14672;50.250;8.312;2023-05-18T08:43:08;99719.75;;;16.39;42.59
27144;BME280;14672;50.250;8.312;2023-05-18T08:46:01;99718.81;;;16.42;40.66
27144;BME280;14672;50.250;8.312;2023-05-18T08:48:31;99709.09;;;16.58;40.59
27144;BME280;14672;50.250;8.312;2023-05-18T08:51:01;99706.06;;;16.61;40.81
27144;BME280;14672;50.250;8.312;2023-05-18T08:53:28;99718.16;;;16.65;40.94
27144;BME280;14672;50.250;8.312;2023-05-18T08:55:56;99701.59;;;16.69;40.98
27144;BME280;14672;50.250;8.312;2023-05-18T08:58:33;99712.72;;;16.76;40.67
27144;BME280;14672;50.250;8.312;2023-05-18T09:01:00;99710.03;;;16.82;41.68
27144;BME280;14672;50.250;8.312;2023-05-18T09:03:27;99702.19;;;16.92;40.89
27144;BME280;14672;50.250;8.312;2023-05-18T09:05:55;99700.94;;;16.83;40.12
27144;BME280;14672;50.250;8.312;2023-05-18T09:08:22;99704.75;;;16.89;39.13
27144;BME280;14672;50.250;8.312;2023-05-18T09:10:49;99699.00;;;16.89;39.57
27144;BME280;14672;50.250;8.312;2023-05-18T09:13:18;99704.91;;;16.86;39.66
27144;BME280;14672;50.250;8.312;2023-05-18T09:15:47;99696.94;;;16.81;39.75
27144;BME280;14672;50.250;8.312;2023-05-18T09:18:13;99700.59;;;16.90;40.18
27144;BME280;14672;50.250;8.312;2023-05-18T09:20:39;99694.84;;;16.90;40.28
27144;BME280;14672;50.250;8.312;2023-05-18T09:23:05;99692.63;;;16.85;40.65
27144;BME280;14672;50.250;8.312;2023-05-18T09:25:32;99695.94;;;17.02;40.71
27144;BME280;14672;50.250;8.312;2023-05-18T09:28:01;99684.75;;;17.04;41.27
27144;BME280;14672;50.250;8.312;2023-05-18T09:30:28;99691.78;;;17.03;41.12
27144;BME280;14672;50.250;8.312;2023-05-18T09:32:54;99688.56;;;17.10;41.86
27144;BME280;14672;50.250;8.312;2023-05-18T09:35:24;99691.69;;;17.30;42.42
27144;BME280;14672;50.250;8.312;2023-05-18T09:37:49;99690.84;;;17.39;41.44
27144;BME280;14672;50.250;8.312;2023-05-18T09:40:17;99686.47;;;17.53;41.55
27144;BME280;14672;50.250;8.312;2023-05-18T09:42:45;99690.47;;;17.55;41.41
27144;BME280;14672;50.250;8.312;2023-05-18T09:45:20;99689.50;;;17.58;39.69
27144;BME280;14672;50.250;8.312;2023-05-18T09:47:49;99681.31;;;17.66;41.17
27144;BME280;14672;50.250;8.312;2023-05-18T09:50:20;99689.81;;;17.84;41.13
27144;BME280;14672;50.250;8.312;2023-05-18T09:52:46;99686.91;;;17.93;40.29
27144;BME280;14672;50.250;8.312;2023-05-18T09:55:19;99681.88;;;18.03;40.38
27144;BME280;14672;50.250;8.312;2023-05-18T09:57:48;99686.84;;;18.02;39.53
27144;BME280;14672;50.250;8.312;2023-05-18T10:00:15;99687.31;;;18.01;40.32
27144;BME280;14672;50.250;8.312;2023-05-18T10:02:44;99685.69;;;18.23;40.63
27144;BME280;14672;50.250;8.312;2023-05-18T10:05:21;99683.53;;;18.33;40.30
27144;BME280;14672;50.250;8.312;2023-05-18T10:07:47;99674.84;;;18.42;39.90
27144;BME280;14672;50.250;8.312;2023-05-18T10:10:22;99673.50;;;18.52;39.89
27144;BME280;14672;50.250;8.312;2023-05-18T10:12:53;99669.75;;;18.61;39.60
27144;BME280;14672;50.250;8.312;2023-05-18T10:15:23;99662.09;;;18.58;37.92
27144;BME280;14672;50.250;8.312;2023-05-18T10:17:52;99664.09;;;18.66;38.91
27144;BME280;14672;50.250;8.312;2023-05-18T10:20:22;99671.44;;;18.82;38.45
27144;BME280;14672;50.250;8.312;2023-05-18T10:22:55;99655.94;;;18.94;39.10
27144;BME280;14672;50.250;8.312;2023-05-18T10:25:26;99655.94;;;19.09;38.50
27144;BME280;14672;50.250;8.312;2023-05-18T10:27:59;99647.97;;;19.18;38.68
27144;BME280;14672;50.250;8.312;2023-05-18T10:30:25;99656.50;;;19.28;37.64
27144;BME280;14672;50.250;8.312;2023-05-18T10:32:54;99661.75;;;19.44;38.52
27144;BME280;14672;50.250;8.312;2023-05-18T10:35:21;99647.00;;;19.56;38.48
27144;BME280;14672;50.250;8.312;2023-05-18T10:37:49;99645.41;;;19.55;36.58
27144;BME280;14672;50.250;8.312;2023-05-18T10:40:18;99637.72;;;19.67;37.10
27144;BME280;14672;50.250;8.312;2023-05-18T10:42:46;99636.09;;;19.81;38.18
27144;BME280;14672;50.250;8.312;2023-05-18T10:45:14;99636.78;;;19.76;37.38
27144;BME280;14672;50.250;8.312;2023-05-18T10:47:42;99639.19;;;19.77;36.37
27144;BME280;14672;50.250;8.312;2023-05-18T10:50:09;99637.50;;;19.91;36.08
27144;BME280;14672;50.250;8.312;2023-05-18T10:52:36;99642.13;;;20.03;37.02
27144;BME280;14672;50.250;8.312;2023-05-18T10:55:02;99640.25;;;20.20;37.78
27144;BME280;14672;50.250;8.312;2023-05-18T10:57:39;99640.03;;;20.24;36.03
27144;BME280;14672;50.250;8.312;2023-05-18T11:00:08;99629.97;;;20.34;36.39
27144;BME280;14672;50.250;8.312;2023-05-18T11:02:38;99632.16;;;20.44;35.01
27144;BME280;14672;50.250;8.312;2023-05-18T11:05:08;99632.25;;;20.50;35.55
27144;BME280;14672;50.250;8.312;2023-05-18T11:07:35;99630.63;;;20.75;36.07
27144;BME280;14672;50.250;8.312;2023-05-18T11:10:06;99635.19;;;20.81;35.59
27144;BME280;14672;50.250;8.312;2023-05-18T11:12:40;99621.84;;;20.89;35.01
27144;BME280;14672;50.250;8.312;2023-05-18T11:15:07;99620.88;;;20.98;35.09
27144;BME280;14672;50.250;8.312;2023-05-18T11:17:33;99625.16;;;21.08;36.28
27144;BME280;14672;50.250;8.312;2023-05-18T11:27:51;99606.28;;;21.44;34.33
27144;BME280;14672;50.250;8.312;2023-05-18T11:33:28;99613.56;;;21.82;35.59
27144;BME280;14672;50.250;8.312;2023-05-18T11:36:11;99604.13;;;21.81;33.44
27144;BME280;14672;50.250;8.312;2023-05-18T11:38:50;99616.25;;;21.91;34.41
27144;BME280;14672;50.250;8.312;2023-05-18T11:41:29;99597.41;;;22.01;33.91
27144;BME280;14672;50.250;8.312;2023-05-18T11:49:21;99608.31;;;21.86;33.91
27144;BME280;14672;50.250;8.312;2023-05-18T11:52:00;99610.19;;;21.89;33.48
27144;BME280;14672;50.250;8.312;2023-05-18T11:54:26;99600.28;;;22.01;33.34
27144;BME280;14672;50.250;8.312;2023-05-18T11:56:53;99603.69;;;21.99;33.86
27144;BME280;14672;50.250;8.312;2023-05-18T11:59:33;99602.69;;;22.08;33.83
27144;BME280;14672;50.250;8.312;2023-05-18T12:02:01;99599.81;;;22.19;33.91
27144;BME280;14672;50.250;8.312;2023-05-18T12:04:27;99593.28;;;22.35;33.01
27144;BME280;14672;50.250;8.312;2023-05-18T12:06:56;99583.84;;;22.52;33.34
27144;BME280;14672;50.250;8.312;2023-05-18T12:09:22;99588.59;;;22.55;33.48
27144;BME280;14672;50.250;8.312;2023-05-18T12:11:49;99581.78;;;22.69;33.07
27144;BME280;14672;50.250;8.312;2023-05-18T12:14:18;99589.19;;;22.92;33.35
27144;BME280;14672;50.250;8.312;2023-05-18T12:16:46;99581.00;;;23.02;33.20
27144;BME280;14672;50.250;8.312;2023-05-18T12:19:13;99578.34;;;23.15;33.86
27144;BME280;14672;50.250;8.312;2023-05-18T12:21:39;99580.44;;;23.25;33.65
27144;BME280;14672;50.250;8.312;2023-05-18T12:24:07;99570.94;;;23.41;32.96
27144;BME280;14672;50.250;8.312;2023-05-18T12:26:33;99579.94;;;23.44;32.45
27144;BME280;14672;50.250;8.312;2023-05-18T12:29:00;99583.34;;;23.48;32.17
27144;BME280;14672;50.250;8.312;2023-05-18T12:31:26;99573.53;;;23.67;32.01
27144;BME280;14672;50.250;8.312;2023-05-18T12:33:55;99574.78;;;23.83;33.03
27144;BME280;14672;50.250;8.312;2023-05-18T12:36:21;99566.53;;;23.98;32.37
27144;BME280;14672;50.250;8.312;2023-05-18T12:38:51;99571.25;;;24.07;31.69
27144;BME280;14672;50.250;8.312;2023-05-18T12:41:24;99562.22;;;24.21;32.18
27144;BME280;14672;50.250;8.312;2023-05-18T12:43:51;99567.44;;;24.34;32.62
27144;BME280;14672;50.250;8.312;2023-05-18T12:46:20;99563.16;;;24.41;31.88
27144;BME280;14672;50.250;8.312;2023-05-18T12:48:56;99554.88;;;24.20;32.15
27144;BME280;14672;50.250;8.312;2023-05-18T12:51:23;99555.00;;;24.39;31.95
27144;BME280;14672;50.250;8.312;2023-05-18T12:53:55;99547.31;;;24.42;31.70
27144;BME280;14672;50.250;8.312;2023-05-18T12:56:21;99555.75;;;24.45;32.03
27144;BME280;14672;50.250;8.312;2023-05-18T12:58:57;99554.03;;;24.25;31.78
27144;BME280;14672;50.250;8.312;2023-05-18T13:01:26;99549.06;;;24.15;30.72
27144;BME280;14672;50.250;8.312;2023-05-18T13:03:57;99544.31;;;24.17;30.66
27144;BME280;14672;50.250;8.312;2023-05-18T13:06:24;99544.31;;;24.17;30.08
27144;BME280;14672;50.250;8.312;2023-05-18T13:08:53;99539.47;;;24.31;30.62
27144;BME280;14672;50.250;8.312;2023-05-18T13:11:24;99533.25;;;24.16;30.00
27144;BME280;14672;50.250;8.312;2023-05-18T13:14:02;99535.91;;;24.08;29.51
27144;BME280;14672;50.250;8.312;2023-05-18T13:16:38;99531.28;;;23.77;29.79
27144;BME280;14672;50.250;8.312;2023-05-18T13:19:09;99519.50;;;24.11;30.12
27144;BME280;14672;50.250;8.312;2023-05-18T13:21:36;99530.28;;;24.21;29.98
27144;BME280;14672;50.250;8.312;2023-05-18T13:24:03;99537.59;;;24.33;30.26
27144;BME280;14672;50.250;8.312;2023-05-18T13:26:29;99541.94;;;24.16;29.68
27144;BME280;14672;50.250;8.312;2023-05-18T13:28:56;99532.28;;;24.38;29.50
27144;BME280;14672;50.250;8.312;2023-05-18T13:31:22;99522.16;;;24.55;28.73
27144;BME280;14672;50.250;8.312;2023-05-18T13:33:49;99518.34;;;24.66;29.18
27144;BME280;14672;50.250;8.312;2023-05-18T13:36:16;99520.59;;;24.84;30.00
27144;BME280;14672;50.250;8.312;2023-05-18T13:38:42;99520.56;;;24.90;29.96
27144;BME280;14672;50.250;8.312;2023-05-18T13:41:10;99512.75;;;24.73;29.75